sensor_id;sensor_type;location;lat;lon;timestamp;P1;durP1;ratioP1;P2;durP2;ratioP2
4583;SDS011;2304;47.606;12.186;2023-05-20T00:00:51;14.53;;;10.10;;
4583;SDS011;2304;47.606;12.186;2023-05-20T00:05:53;15.07;;;10.53;;
4583;SDS011;2304;47.606;12.186;2023-05-20T00:10:55;13.13;;;9.53;;
4583;SDS011;2304;47.606;12.186;2023-05-20T00:15:58;12.77;;;9.53;;
4583;SDS011;2304;47.606;12.186;2023-05-20T00:21:00;13.77;;;9.77;;
4583;SDS011;2304;47.606;12.186;2023-05-20T00:26:02;13.27;;;10.90;;
4583;SDS011;2304;47.606;12.186;2023-05-20T00:31:06;13.93;;;9.90;;
4583;SDS011;2304;47.606;12.186;2023-05-20T00:36:08;12.40;;;9.83;;
4583;SDS011;2304;47.606;12.186;2023-05-20T00:41:09;15.60;;;10.73;;
4583;SDS011;2304;47.606;12.186;2023-05-20T00:46:13;14.63;;;11.00;;
4583;SDS011;2304;47.606;12.186;2023-05-20T00:51:15;15.00;;;10.67;;
4583;SDS011;2304;47.606;12.186;2023-05-20T00:56:17;14.00;;;10.70;;
4583;SDS011;2304;47.606;12.186;2023-05-20T01:01:21;14.37;;;11.40;;
4583;SDS011;2304;47.606;12.186;2023-05-20T01:06:23;12.13;;;10.10;;
4583;SDS011;2304;47.606;12.186;2023-05-20T01:11:28;13.20;;;9.57;;
4583;SDS011;2304;47.606;12.186;2023-05-20T01:16:35;13.47;;;9.60;;
4583;SDS011;2304;47.606;12.186;2023-05-20T01:21:39;14.20;;;10.13;;
4583;SDS011;2304;47.606;12.186;2023-05-20T01:26:44;11.60;;;9.77;;
4583;SDS011;2304;47.606;12.186;2023-05-20T01:31:47;9.90;;;8.20;;
4583;SDS011;2304;47.606;12.186;2023-05-20T01:36:50;15.30;;;10.90;;
4583;SDS011;2304;47.606;12.186;2023-05-20T01:41:54;14.50;;;10.33;;
4583;SDS011;2304;47.606;12.186;2023-05-20T01:46:56;15.10;;;10.77;;
4583;SDS011;2304;47.606;12.186;2023-05-20T01:51:59;12.53;;;10.07;;
4583;SDS011;2304;47.606;12.186;2023-05-20T01:57:02;12.30;;;9.73;;
4583;SDS011;2304;47.606;12.186;2023-05-20T02:02:04;13.37;;;10.23;;
4583;SDS011;2304;47.606;12.186;2023-05-20T02:07:06;16.03;;;11.23;;
4583;SDS011;2304;47.606;12.186;2023-05-20T02:12:10;17.10;;;10.83;;
4583;SDS011;2304;47.606;12.186;2023-05-20T02:17:15;14.43;;;10.73;;
4583;SDS011;2304;47.606;12.186;2023-05-20T02:22:17;16.03;;;11.50;;
4583;SDS011;2304;47.606;12.186;2023-05-20T02:27:20;13.13;;;9.97;;
4583;SDS011;2304;47.606;12.186;2023-05-20T02:32:22;11.80;;;8.83;;
4583;SDS011;2304;47.606;12.186;2023-05-20T02:37:27;13.73;;;9.80;;
4583;SDS011;2304;47.606;12.186;2023-05-20T02:42:30;15.47;;;10.40;;
4583;SDS011;2304;47.606;12.186;2023-05-20T02:47:32;15.00;;;9.70;;
4583;SDS011;2304;47.606;12.186;2023-05-20T02:52:33;13.00;;;9.90;;
4583;SDS011;2304;47.606;12.186;2023-05-20T02:57:36;14.60;;;10.00;;
4583;SDS011;2304;47.606;12.186;2023-05-20T03:02:38;13.27;;;10.53;;
4583;SDS011;2304;47.606;12.186;2023-05-20T03:07:40;12.70;;;10.30;;
4583;SDS011;2304;47.606;12.186;2023-05-20T03:12:43;11.87;;;9.17;;
4583;SDS011;2304;47.606;12.186;2023-05-20T03:17:45;15.30;;;10.50;;
4583;SDS011;2304;47.606;12.186;2023-05-20T03:22:47;12.27;;;10.10;;
4583;SDS011;2304;47.606;12.186;2023-05-20T03:27:50;12.63;;;9.10;;
4583;SDS011;2304;47.606;12.186;2023-05-20T03:32:52;13.37;;;10.20;;
4583;SDS011;2304;47.606;12.186;2023-05-20T03:37:53;11.97;;;9.63;;
4583;SDS011;2304;47.606;12.186;2023-05-20T03:42:57;12.73;;;9.60;;
4583;SDS011;2304;47.606;12.186;2023-05-20T03:47:58;12.13;;;10.00;;
4583;SDS011;2304;47.606;12.186;2023-05-20T03:53:02;15.37;;;9.23;;
4583;SDS011;2304;47.606;12.186;2023-05-20T03:58:05;12.10;;;9.83;;
4583;SDS011;2304;47.606;12.186;2023-05-20T04:03:07;13.67;;;10.30;;
4583;SDS011;2304;47.606;12.186;2023-05-20T04:08:09;14.60;;;9.90;;
4583;SDS011;2304;47.606;12.186;2023-05-20T04:13:14;16.03;;;10.20;;
4583;SDS011;2304;47.606;12.186;2023-05-20T04:18:16;15.43;;;10.97;;
4583;SDS011;2304;47.606;12.186;2023-05-20T04:23:18;13.90;;;10.83;;
4583;SDS011;2304;47.606;12.186;2023-05-20T04:28:22;15.37;;;11.37;;
4583;SDS011;2304;47.606;12.186;2023-05-20T04:33:27;13.80;;;11.63;;
4583;SDS011;2304;47.606;12.186;2023-05-20T04:38:29;17.30;;;10.93;;
4583;SDS011;2304;47.606;12.186;2023-05-20T04:43:32;19.70;;;11.50;;
4583;SDS011;2304;47.606;12.186;2023-05-20T04:48:34;24.83;;;12.60;;
4583;SDS011;2304;47.606;12.186;2023-05-20T04:53:36;18.00;;;11.43;;
4583;SDS011;2304;47.606;12.186;2023-05-20T04:58:40;14.13;;;11.57;;
4583;SDS011;2304;47.606;12.186;2023-05-20T05:03:42;17.10;;;11.50;;
4583;SDS011;2304;47.606;12.186;2023-05-20T05:08:44;13.70;;;11.17;;
4583;SDS011;2304;47.606;12.186;2023-05-20T05:13:47;16.50;;;11.83;;
4583;SDS011;2304;47.606;12.186;2023-05-20T05:18:49;15.93;;;11.80;;
4583;SDS011;2304;47.606;12.186;2023-05-20T05:23:51;15.57;;;12.13;;
4583;SDS011;2304;47.606;12.186;2023-05-20T05:28:54;17.77;;;10.70;;
4583;SDS011;2304;47.606;12.186;2023-05-20T05:33:56;15.53;;;11.40;;
4583;SDS011;2304;47.606;12.186;2023-05-20T05:38:58;14.67;;;11.43;;
4583;SDS011;2304;47.606;12.186;2023-05-20T05:44:01;13.97;;;11.20;;
4583;SDS011;2304;47.606;12.186;2023-05-20T05:49:03;17.00;;;11.97;;
4583;SDS011;2304;47.606;12.186;2023-05-20T05:54:04;17.47;;;11.50;;
4583;SDS011;2304;47.606;12.186;2023-05-20T05:59:07;14.93;;;11.20;;
4583;SDS011;2304;47.606;12.186;2023-05-20T06:04:09;18.70;;;11.33;;
4583;SDS011;2304;47.606;12.186;2023-05-20T06:09:11;17.13;;;12.03;;
4583;SDS011;2304;47.606;12.186;2023-05-20T06:14:14;12.30;;;9.10;;
4583;SDS011;2304;47.606;12.186;2023-05-20T06:19:16;8.03;;;6.43;;
4583;SDS011;2304;47.606;12.186;2023-05-20T06:24:18;14.70;;;10.70;;
4583;SDS011;2304;47.606;12.186;2023-05-20T06:29:21;13.40;;;10.00;;
4583;SDS011;2304;47.606;12.186;2023-05-20T06:34:23;13.07;;;9.40;;
4583;SDS011;2304;47.606;12.186;2023-05-20T06:39:25;13.40;;;10.63;;
4583;SDS011;2304;47.606;12.186;2023-05-20T06:44:29;14.30;;;10.60;;
4583;SDS011;2304;47.606;12.186;2023-05-20T06:49:31;14.50;;;10.13;;
4583;SDS011;2304;47.606;12.186;2023-05-20T06:54:33;12.23;;;10.17;;
4583;SDS011;2304;47.606;12.186;2023-05-20T06:59:40;11.87;;;10.20;;
4583;SDS011;2304;47.606;12.186;2023-05-20T07:04:42;13.77;;;10.03;;
4583;SDS011;2304;47.606;12.186;2023-05-20T07:09:44;13.23;;;9.67;;
4583;SDS011;2304;47.606;12.186;2023-05-20T07:14:47;12.47;;;9.10;;
4583;SDS011;2304;47.606;12.186;2023-05-20T07:19:49;14.40;;;9.43;;
4583;SDS011;2304;47.606;12.186;2023-05-20T07:24:51;15.60;;;9.60;;
4583;SDS011;2304;47.606;12.186;2023-05-20T07:29:54;14.00;;;9.13;;
4583;SDS011;2304;47.606;12.186;2023-05-20T07:34:56;9.80;;;7.93;;
4583;SDS011;2304;47.606;12.186;2023-05-20T07:39:58;12.10;;;8.20;;
4583;SDS011;2304;47.606;12.186;2023-05-20T07:45:02;10.73;;;8.27;;
4583;SDS011;2304;47.606;12.186;2023-05-20T07:50:04;15.03;;;8.13;;
4583;SDS011;2304;47.606;12.186;2023-05-20T07:55:07;11.10;;;7.60;;
4583;SDS011;2304;47.606;12.186;2023-05-20T08:00:11;10.03;;;8.10;;
4583;SDS011;2304;47.606;12.186;2023-05-20T08:05:13;10.10;;;7.80;;
4583;SDS011;2304;47.606;12.186;2023-05-20T08:10:15;11.70;;;8.10;;
4583;SDS011;2304;47.606;12.186;2023-05-20T08:15:19;9.73;;;6.37;;
4583;SDS011;2304;47.606;12.186;2023-05-20T08:20:20;8.30;;;6.53;;
4583;SDS011;2304;47.606;12.186;2023-05-20T08:25:22;10.80;;;6.70;;
4583;SDS011;2304;47.606;12.186;2023-05-20T08:30:25;10.10;;;7.70;;
4583;SDS011;2304;47.606;12.186;2023-05-20T08:35:27;8.53;;;6.87;;
4583;SDS011;2304;47.606;12.186;2023-05-20T08:40:30;7.87;;;6.57;;
4583;SDS011;2304;47.606;12.186;2023-05-20T08:45:33;10.30;;;6.73;;
4583;SDS011;2304;47.606;12.186;2023-05-20T08:50:38;8.83;;;7.50;;
4583;SDS011;2304;47.606;12.186;2023-05-20T08:55:41;9.63;;;5.90;;
4583;SDS011;2304;47.606;12.186;2023-05-20T09:00:45;7.67;;;6.30;;
4583;SDS011;2304;47.606;12.186;2023-05-20T09:05:46;10.90;;;6.50;;
4583;SDS011;2304;47.606;12.186;2023-05-20T09:10:50;9.77;;;6.90;;
4583;SDS011;2304;47.606;12.186;2023-05-20T09:15:54;7.17;;;6.30;;
4583;SDS011;2304;47.606;12.186;2023-05-20T09:20:56;5.40;;;4.67;;
4583;SDS011;2304;47.606;12.186;2023-05-20T09:25:59;6.80;;;5.60;;
4583;SDS011;2304;47.606;12.186;2023-05-20T09:31:04;8.43;;;6.17;;
4583;SDS011;2304;47.606;12.186;2023-05-20T09:36:08;8.23;;;5.93;;
4583;SDS011;2304;47.606;12.186;2023-05-20T09:41:11;6.13;;;5.10;;
4583;SDS011;2304;47.606;12.186;2023-05-20T09:46:15;8.57;;;5.17;;
4583;SDS011;2304;47.606;12.186;2023-05-20T09:51:18;6.83;;;5.00;;
4583;SDS011;2304;47.606;12.186;2023-05-20T09:56:22;6.17;;;5.00;;
4583;SDS011;2304;47.606;12.186;2023-05-20T10:01:26;7.90;;;5.67;;
4583;SDS011;2304;47.606;12.186;2023-05-20T10:06:34;10.60;;;7.57;;
4583;SDS011;2304;47.606;12.186;2023-05-20T10:11:47;10.60;;;8.40;;
4583;SDS011;2304;47.606;12.186;2023-05-20T10:17:00;8.60;;;7.03;;
4583;SDS011;2304;47.606;12.186;2023-05-20T10:22:09;11.03;;;7.20;;
4583;SDS011;2304;47.606;12.186;2023-05-20T10:27:13;11.40;;;8.90;;
4583;SDS011;2304;47.606;12.186;2023-05-20T10:32:25;11.13;;;8.17;;
4583;SDS011;2304;47.606;12.186;2023-05-20T10:37:28;8.33;;;6.43;;
4583;SDS011;2304;47.606;12.186;2023-05-20T10:42:32;8.27;;;6.80;;
4583;SDS011;2304;47.606;12.186;2023-05-20T10:47:35;7.70;;;6.57;;
4583;SDS011;2304;47.606;12.186;2023-05-20T10:52:42;10.70;;;7.10;;
4583;SDS011;2304;47.606;12.186;2023-05-20T10:57:44;9.87;;;6.90;;
4583;SDS011;2304;47.606;12.186;2023-05-20T11:02:47;7.30;;;5.97;;
4583;SDS011;2304;47.606;12.186;2023-05-20T11:07:50;8.07;;;6.40;;
4583;SDS011;2304;47.606;12.186;2023-05-20T11:13:02;8.87;;;6.63;;
4583;SDS011;2304;47.606;12.186;2023-05-20T11:18:06;7.00;;;5.53;;
4583;SDS011;2304;47.606;12.186;2023-05-20T11:23:10;7.00;;;5.53;;
4583;SDS011;2304;47.606;12.186;2023-05-20T11:28:14;9.23;;;5.10;;
4583;SDS011;2304;47.606;12.186;2023-05-20T11:33:18;7.00;;;5.00;;
4583;SDS011;2304;47.606;12.186;2023-05-20T11:38:20;5.83;;;5.10;;
4583;SDS011;2304;47.606;12.186;2023-05-20T11:43:22;7.33;;;5.60;;
4583;SDS011;2304;47.606;12.186;2023-05-20T11:48:26;7.37;;;5.17;;
4583;SDS011;2304;47.606;12.186;2023-05-20T11:53:27;5.50;;;4.23;;
4583;SDS011;2304;47.606;12.186;2023-05-20T11:58:29;11.13;;;4.97;;
4583;SDS011;2304;47.606;12.186;2023-05-20T12:03:33;7.90;;;5.23;;
4583;SDS011;2304;47.606;12.186;2023-05-20T12:08:36;7.33;;;4.73;;
4583;SDS011;2304;47.606;12.186;2023-05-20T12:13:38;5.33;;;4.47;;
4583;SDS011;2304;47.606;12.186;2023-05-20T12:18:41;6.50;;;4.07;;
4583;SDS011;2304;47.606;12.186;2023-05-20T12:23:43;11.93;;;5.70;;
4583;SDS011;2304;47.606;12.186;2023-05-20T12:28:44;7.53;;;4.70;;
4583;SDS011;2304;47.606;12.186;2023-05-20T12:33:48;5.80;;;4.10;;
4583;SDS011;2304;47.606;12.186;2023-05-20T12:38:49;6.33;;;3.93;;
4583;SDS011;2304;47.606;12.186;2023-05-20T12:43:51;4.53;;;3.80;;
4583;SDS011;2304;47.606;12.186;2023-05-20T12:48:55;4.83;;;4.00;;
4583;SDS011;2304;47.606;12.186;2023-05-20T12:53:57;10.20;;;5.90;;
4583;SDS011;2304;47.606;12.186;2023-05-20T12:58:59;7.33;;;4.90;;
4583;SDS011;2304;47.606;12.186;2023-05-20T13:04:02;9.00;;;5.40;;
4583;SDS011;2304;47.606;12.186;2023-05-20T13:09:04;13.43;;;5.27;;
4583;SDS011;2304;47.606;12.186;2023-05-20T13:14:06;6.50;;;5.10;;
4583;SDS011;2304;47.606;12.186;2023-05-20T13:19:10;8.13;;;4.47;;
4583;SDS011;2304;47.606;12.186;2023-05-20T13:24:11;5.50;;;4.20;;
4583;SDS011;2304;47.606;12.186;2023-05-20T13:29:13;6.30;;;4.67;;
4583;SDS011;2304;47.606;12.186;2023-05-20T13:34:16;6.70;;;4.30;;
4583;SDS011;2304;47.606;12.186;2023-05-20T13:39:18;6.87;;;4.63;;
4583;SDS011;2304;47.606;12.186;2023-05-20T13:44:20;6.30;;;4.20;;
4583;SDS011;2304;47.606;12.186;2023-05-20T13:49:23;6.20;;;3.80;;
4583;SDS011;2304;47.606;12.186;2023-05-20T13:54:25;6.27;;;4.60;;
4583;SDS011;2304;47.606;12.186;2023-05-20T13:59:27;6.60;;;4.27;;
4583;SDS011;2304;47.606;12.186;2023-05-20T14:04:30;7.10;;;4.70;;
4583;SDS011;2304;47.606;12.186;2023-05-20T14:09:37;7.20;;;4.97;;
4583;SDS011;2304;47.606;12.186;2023-05-20T14:14:38;8.97;;;4.57;;
4583;SDS011;2304;47.606;12.186;2023-05-20T14:19:42;6.13;;;5.20;;
4583;SDS011;2304;47.606;12.186;2023-05-20T14:24:43;8.60;;;4.90;;
4583;SDS011;2304;47.606;12.186;2023-05-20T14:29:45;7.00;;;5.10;;
4583;SDS011;2304;47.606;12.186;2023-05-20T14:34:50;6.83;;;5.00;;
4583;SDS011;2304;47.606;12.186;2023-05-20T14:39:52;7.40;;;5.17;;
4583;SDS011;2304;47.606;12.186;2023-05-20T14:44:54;8.57;;;5.43;;
4583;SDS011;2304;47.606;12.186;2023-05-20T14:49:57;8.33;;;5.20;;
4583;SDS011;2304;47.606;12.186;2023-05-20T14:54:59;7.57;;;4.57;;
4583;SDS011;2304;47.606;12.186;2023-05-20T15:00:01;7.07;;;4.53;;
4583;SDS011;2304;47.606;12.186;2023-05-20T15:05:06;7.57;;;4.67;;
4583;SDS011;2304;47.606;12.186;2023-05-20T15:10:10;7.20;;;5.37;;
4583;SDS011;2304;47.606;12.186;2023-05-20T15:15:12;7.70;;;5.23;;
4583;SDS011;2304;47.606;12.186;2023-05-20T15:20:15;6.80;;;5.30;;
4583;SDS011;2304;47.606;12.186;2023-05-20T15:25:17;5.17;;;4.13;;
4583;SDS011;2304;47.606;12.186;2023-05-20T15:30:19;7.40;;;5.40;;
4583;SDS011;2304;47.606;12.186;2023-05-20T15:35:23;7.03;;;5.07;;
4583;SDS011;2304;47.606;12.186;2023-05-20T15:40:25;7.87;;;5.10;;
4583;SDS011;2304;47.606;12.186;2023-05-20T15:45:27;6.93;;;4.93;;
4583;SDS011;2304;47.606;12.186;2023-05-20T15:50:31;7.63;;;4.90;;
4583;SDS011;2304;47.606;12.186;2023-05-20T15:55:34;10.73;;;5.00;;
4583;SDS011;2304;47.606;12.186;2023-05-20T16:00:36;5.57;;;4.20;;
4583;SDS011;2304;47.606;12.186;2023-05-20T16:05:39;8.27;;;5.23;;
4583;SDS011;2304;47.606;12.186;2023-05-20T16:10:41;6.63;;;4.83;;
4583;SDS011;2304;47.606;12.186;2023-05-20T16:15:42;7.03;;;4.70;;
4583;SDS011;2304;47.606;12.186;2023-05-20T16:20:48;6.30;;;5.03;;
4583;SDS011;2304;47.606;12.186;2023-05-20T16:25:50;6.73;;;5.00;;
4583;SDS011;2304;47.606;12.186;2023-05-20T16:30:52;6.40;;;5.10;;
4583;SDS011;2304;47.606;12.186;2023-05-20T16:35:55;12.43;;;5.67;;
4583;SDS011;2304;47.606;12.186;2023-05-20T16:40:57;8.20;;;4.60;;
4583;SDS011;2304;47.606;12.186;2023-05-20T16:45:59;6.90;;;4.73;;
4583;SDS011;2304;47.606;12.186;2023-05-20T16:51:02;6.10;;;5.07;;
4583;SDS011;2304;47.606;12.186;2023-05-20T16:56:04;6.57;;;4.20;;
4583;SDS011;2304;47.606;12.186;2023-05-20T17:01:08;7.30;;;4.57;;
4583;SDS011;2304;47.606;12.186;2023-05-20T17:06:11;5.63;;;4.63;;
4583;SDS011;2304;47.606;12.186;2023-05-20T17:11:13;7.50;;;5.00;;
4583;SDS011;2304;47.606;12.186;2023-05-20T17:16:15;5.93;;;4.60;;
4583;SDS011;2304;47.606;12.186;2023-05-20T17:21:18;6.10;;;4.60;;
4583;SDS011;2304;47.606;12.186;2023-05-20T17:26:20;6.47;;;5.10;;
4583;SDS011;2304;47.606;12.186;2023-05-20T17:31:22;12.40;;;5.30;;
4583;SDS011;2304;47.606;12.186;2023-05-20T17:36:25;8.23;;;5.40;;
4583;SDS011;2304;47.606;12.186;2023-05-20T17:41:27;14.43;;;6.07;;
4583;SDS011;2304;47.606;12.186;2023-05-20T17:46:29;7.63;;;5.97;;
4583;SDS011;2304;47.606;12.186;2023-05-20T17:51:32;10.83;;;5.37;;
4583;SDS011;2304;47.606;12.186;2023-05-20T17:56:34;6.93;;;5.47;;
4583;SDS011;2304;47.606;12.186;2023-05-20T18:01:36;7.10;;;5.20;;
4583;SDS011;2304;47.606;12.186;2023-05-20T18:06:39;8.20;;;5.87;;
4583;SDS011;2304;47.606;12.186;2023-05-20T18:11:41;12.50;;;5.20;;
4583;SDS011;2304;47.606;12.186;2023-05-20T18:16:43;7.90;;;5.43;;
4583;SDS011;2304;47.606;12.186;2023-05-20T18:21:46;9.20;;;5.20;;
4583;SDS011;2304;47.606;12.186;2023-05-20T18:26:48;8.00;;;6.17;;
4583;SDS011;2304;47.606;12.186;2023-05-20T18:31:50;8.83;;;6.53;;
4583;SDS011;2304;47.606;12.186;2023-05-20T18:36:53;7.67;;;5.33;;
4583;SDS011;2304;47.606;12.186;2023-05-20T18:41:55;8.20;;;5.43;;
4583;SDS011;2304;47.606;12.186;2023-05-20T18:46:57;9.80;;;5.70;;
4583;SDS011;2304;47.606;12.186;2023-05-20T18:52:00;8.63;;;5.63;;
4583;SDS011;2304;47.606;12.186;2023-05-20T18:57:02;8.80;;;5.60;;
4583;SDS011;2304;47.606;12.186;2023-05-20T19:02:04;7.70;;;5.50;;
4583;SDS011;2304;47.606;12.186;2023-05-20T19:07:08;7.23;;;5.30;;
4583;SDS011;2304;47.606;12.186;2023-05-20T19:12:10;7.87;;;6.33;;
4583;SDS011;2304;47.606;12.186;2023-05-20T19:17:12;8.37;;;6.33;;
4583;SDS011;2304;47.606;12.186;2023-05-20T19:22:16;10.97;;;7.10;;
4583;SDS011;2304;47.606;12.186;2023-05-20T19:27:17;8.03;;;6.30;;
4583;SDS011;2304;47.606;12.186;2023-05-20T19:32:19;11.13;;;7.13;;
4583;SDS011;2304;47.606;12.186;2023-05-20T19:37:22;13.43;;;7.40;;
4583;SDS011;2304;47.606;12.186;2023-05-20T19:42:24;10.30;;;7.10;;
4583;SDS011;2304;47.606;12.186;2023-05-20T19:47:26;11.17;;;6.97;;
4583;SDS011;2304;47.606;12.186;2023-05-20T19:52:29;9.87;;;6.10;;
4583;SDS011;2304;47.606;12.186;2023-05-20T19:57:31;9.97;;;6.23;;
4583;SDS011;2304;47.606;12.186;2023-05-20T20:02:33;10.20;;;6.03;;
4583;SDS011;2304;47.606;12.186;2023-05-20T20:07:36;9.80;;;7.23;;
4583;SDS011;2304;47.606;12.186;2023-05-20T20:12:38;8.50;;;6.30;;
4583;SDS011;2304;47.606;12.186;2023-05-20T20:17:39;10.07;;;5.93;;
4583;SDS011;2304;47.606;12.186;2023-05-20T20:22:45;8.90;;;6.30;;
4583;SDS011;2304;47.606;12.186;2023-05-20T20:27:47;12.10;;;6.50;;
4583;SDS011;2304;47.606;12.186;2023-05-20T20:32:49;10.80;;;7.10;;
4583;SDS011;2304;47.606;12.186;2023-05-20T20:37:53;10.10;;;6.77;;
4583;SDS011;2304;47.606;12.186;2023-05-20T20:42:55;11.47;;;7.60;;
4583;SDS011;2304;47.606;12.186;2023-05-20T20:47:57;10.73;;;7.30;;
4583;SDS011;2304;47.606;12.186;2023-05-20T20:53:01;11.37;;;8.27;;
4583;SDS011;2304;47.606;12.186;2023-05-20T20:58:03;11.17;;;7.33;;
4583;SDS011;2304;47.606;12.186;2023-05-20T21:03:05;11.93;;;8.90;;
4583;SDS011;2304;47.606;12.186;2023-05-20T21:08:09;12.80;;;7.60;;
4583;SDS011;2304;47.606;12.186;2023-05-20T21:13:12;11.30;;;6.97;;
4583;SDS011;2304;47.606;12.186;2023-05-20T21:18:13;15.83;;;6.67;;
4583;SDS011;2304;47.606;12.186;2023-05-20T21:23:22;10.20;;;7.30;;
4583;SDS011;2304;47.606;12.186;2023-05-20T21:28:23;10.37;;;6.93;;
4583;SDS011;2304;47.606;12.186;2023-05-20T21:33:25;9.67;;;7.20;;
4583;SDS011;2304;47.606;12.186;2023-05-20T21:38:28;11.37;;;6.80;;
4583;SDS011;2304;47.606;12.186;2023-05-20T21:43:30;11.90;;;7.70;;
4583;SDS011;2304;47.606;12.186;2023-05-20T21:48:32;17.33;;;9.30;;
4583;SDS011;2304;47.606;12.186;2023-05-20T21:53:35;8.60;;;6.90;;
4583;SDS011;2304;47.606;12.186;2023-05-20T21:58:37;13.00;;;8.00;;
4583;SDS011;2304;47.606;12.186;2023-05-20T22:03:40;9.87;;;7.67;;
4583;SDS011;2304;47.606;12.186;2023-05-20T22:08:46;11.30;;;7.73;;
4583;SDS011;2304;47.606;12.186;2023-05-20T22:13:48;12.27;;;7.60;;
4583;SDS011;2304;47.606;12.186;2023-05-20T22:18:50;13.97;;;7.30;;
4583;SDS011;2304;47.606;12.186;2023-05-20T22:23:54;9.53;;;7.17;;
4583;SDS011;2304;47.606;12.186;2023-05-20T22:28:55;10.83;;;7.33;;
4583;SDS011;2304;47.606;12.186;2023-05-20T22:33:57;10.23;;;8.07;;
4583;SDS011;2304;47.606;12.186;2023-05-20T22:39:01;11.00;;;7.20;;
4583;SDS011;2304;47.606;12.186;2023-05-20T22:44:03;11.17;;;7.23;;
4583;SDS011;2304;47.606;12.186;2023-05-20T22:49:05;11.77;;;7.90;;
4583;SDS011;2304;47.606;12.186;2023-05-20T22:54:10;10.40;;;7.60;;
4583;SDS011;2304;47.606;12.186;2023-05-20T22:59:12;9.70;;;6.87;;
4583;SDS011;2304;47.606;12.186;2023-05-20T23:04:14;13.50;;;7.23;;
4583;SDS011;2304;47.606;12.186;2023-05-20T23:09:17;9.67;;;7.43;;
4583;SDS011;2304;47.606;12.186;2023-05-20T23:14:19;10.70;;;6.90;;
4583;SDS011;2304;47.606;12.186;2023-05-20T23:19:20;9.63;;;6.87;;
4583;SDS011;2304;47.606;12.186;2023-05-20T23:24:24;11.40;;;7.70;;
4583;SDS011;2304;47.606;12.186;2023-05-20T23:29:26;8.87;;;7.07;;
4583;SDS011;2304;47.606;12.186;2023-05-20T23:34:27;18.37;;;10.47;;
4583;SDS011;2304;47.606;12.186;2023-05-20T23:39:31;17.40;;;9.30;;
4583;SDS011;2304;47.606;12.186;2023-05-20T23:44:33;20.13;;;10.90;;
4583;SDS011;2304;47.606;12.186;2023-05-20T23:49:35;19.07;;;10.57;;
4583;SDS011;2304;47.606;12.186;2023-05-20T23:54:38;33.33;;;16.87;;
4583;SDS011;2304;47.606;12.186;2023-05-20T23:59:40;29.33;;;14.17;;
